M I D A S
Marine Information and Data Acquisition System
Tripno 1863 of the Zeeleeuw from 2010-04-22 06:42:15 to 2010-04-22 15:06:58
Back to CruiseResearch ActivitiesStationsMapUnderway DataData graphs

EquipmentUnitsComment
TimeDGPSUTC
LatitudeDGPSDM.mWGS84
LongitudeDGPSDM.mWGS84
HeadingGyrodeg 
SOGDGPSknotsSpeed over ground
COGDGPSdegCourse over ground
DepthEcho soundermeters200 kHz
Missing or incorrect values are displayed as -999
Navigation data collected by the RV Zeeleeuw from 2010-04-22 06:23:39 to 2010-04-22 15:15:14
                                                                                    Next 1000 lines
Time Latitude Longitude Heading SOG COG Depth
2010-04-22 06:23:49 51°13.662 2°55.957 109.7 0.8 287 8.5
2010-04-22 06:23:54 51°13.662 2°55.955 109.2 1.1 289 8.5
2010-04-22 06:23:59 51°13.663 2°55.952 108.9 1.4 288 8.6
2010-04-22 06:24:03 51°13.663 2°55.949 108.6 1.7 288 8.6
2010-04-22 06:24:08 51°13.664 2°55.945 108.8 2.1 290 8.8
2010-04-22 06:24:13 51°13.665 2°55.94 109.4 2.6 291 -999
2010-04-22 06:24:19 51°13.667 2°55.932 110.5 3.2 292 -999
2010-04-22 06:24:25 51°13.669 2°55.923 111.3 3.6 292 -999
2010-04-22 06:24:31 51°13.672 2°55.914 111.5 3.9 293 -999
2010-04-22 06:24:36 51°13.674 2°55.906 111.7 4 293 -999
2010-04-22 06:24:41 51°13.676 2°55.898 111.4 4 292 -999
2010-04-22 06:24:46 51°13.678 2°55.89 110.7 4 292 -999
2010-04-22 06:24:51 51°13.68 2°55.881 110.1 4.1 291 -999
2010-04-22 06:24:56 51°13.682 2°55.872 109.7 4.2 290 -999
2010-04-22 06:25:01 51°13.684 2°55.863 109.2 4.3 290 -999
2010-04-22 06:25:06 51°13.686 2°55.854 108.8 4.3 290 -999
2010-04-22 06:25:11 51°13.688 2°55.845 108.6 4.3 289 -999
2010-04-22 06:25:16 51°13.689 2°55.837 108.6 4.3 289 -999
2010-04-22 06:25:21 51°13.691 2°55.828 108.8 4.3 289 -999
2010-04-22 06:25:26 51°13.693 2°55.819 109.4 4.2 290 -999
2010-04-22 06:25:31 51°13.695 2°55.811 110.5 4.2 291 -999
2010-04-22 06:25:36 51°13.697 2°55.802 111.6 4.1 292 -999
2010-04-22 06:25:41 51°13.699 2°55.794 112.8 4 293 -999
2010-04-22 06:25:46 51°13.702 2°55.786 114 3.9 293 -999
2010-04-22 06:25:51 51°13.704 2°55.778 115.3 3.9 295 -999
2010-04-22 06:25:56 51°13.706 2°55.77 116.7 3.8 295 -999
2010-04-22 06:26:01 51°13.709 2°55.763 118.2 3.7 297 -999
2010-04-22 06:26:06 51°13.711 2°55.756 119.6 3.6 298 -999
2010-04-22 06:26:11 51°13.714 2°55.75 120.7 3.4 299 -999
2010-04-22 06:26:16 51°13.716 2°55.743 122.5 3.3 299 -999
2010-04-22 06:26:21 51°13.717 2°55.737 123.4 3 301 -999
2010-04-22 06:26:26 51°13.719 2°55.733 124.5 2.6 302 -999
2010-04-22 06:26:31 51°13.721 2°55.728 126.2 2.2 301 -999
2010-04-22 06:26:36 51°13.722 2°55.725 128.1 1.7 303 -999
2010-04-22 06:26:41 51°13.723 2°55.723 130.5 1.2 300 -999
2010-04-22 06:26:46 51°13.724 2°55.721 133.2 1.1 307 -999
2010-04-22 06:26:51 51°13.725 2°55.719 137.2 1.4 305 4.8
2010-04-22 06:26:55 51°13.726 2°55.717 139.3 1.8 317 -999
2010-04-22 06:27:01 51°13.729 2°55.713 141.3 2.3 314 -999
2010-04-22 06:27:05 51°13.731 2°55.71 143.2 2.8 323 4.6
2010-04-22 06:27:11 51°13.735 2°55.704 144.6 3.3 322 -999
2010-04-22 06:27:16 51°13.74 2°55.7 146.7 3.7 326 -999
2010-04-22 06:27:21 51°13.745 2°55.695 149.2 4.1 328 -999
2010-04-22 06:27:26 51°13.75 2°55.69 151.5 4.5 330 -999
2010-04-22 06:27:31 51°13.756 2°55.685 152.5 4.8 331 -999
2010-04-22 06:27:36 51°13.762 2°55.68 153.4 5.1 332 -999
2010-04-22 06:27:41 51°13.769 2°55.674 154.1 5.3 333 -999
2010-04-22 06:27:46 51°13.776 2°55.669 154.6 5.5 334 -999
2010-04-22 06:27:51 51°13.783 2°55.663 155 5.6 334 -999
2010-04-22 06:27:56 51°13.79 2°55.658 155.5 5.7 335 -999
2010-04-22 06:28:01 51°13.797 2°55.653 156.2 5.8 335 -999
2010-04-22 06:28:06 51°13.805 2°55.647 157.1 5.8 336 -999
2010-04-22 06:28:11 51°13.812 2°55.643 158.2 5.6 336 -999
2010-04-22 06:28:16 51°13.819 2°55.638 159.3 5.5 337 -999
2010-04-22 06:28:21 51°13.825 2°55.634 160.6 5.3 338 -999
2010-04-22 06:28:26 51°13.832 2°55.63 162.3 5.2 340 -999
2010-04-22 06:28:31 51°13.839 2°55.626 164.5 5 341 -999
2010-04-22 06:28:36 51°13.845 2°55.623 166.7 4.9 344 4.6
2010-04-22 06:28:41 51°13.852 2°55.621 168.6 4.8 345 -999
2010-04-22 06:28:46 51°13.858 2°55.618 171.5 4.7 347 -999
2010-04-22 06:28:51 51°13.864 2°55.617 174.2 4.6 350 -999
2010-04-22 06:28:55 51°13.869 2°55.615 177.2 4.5 352 -999
2010-04-22 06:29:01 51°13.876 2°55.615 180.3 4.4 356 -999
2010-04-22 06:29:06 51°13.882 2°55.614 183.7 4.2 358 -999
2010-04-22 06:29:11 51°13.888 2°55.615 186.9 4.1 2 -999
2010-04-22 06:29:15 51°13.892 2°55.615 190.1 4 4 -999
2010-04-22 06:29:21 51°13.899 2°55.616 193.3 3.8 9 -999
2010-04-22 06:29:26 51°13.903 2°55.618 196.6 3.7 11 -999
2010-04-22 06:29:31 51°13.908 2°55.62 199.8 3.5 15 4.5
2010-04-22 06:29:36 51°13.913 2°55.622 202.9 3.4 18 -999
2010-04-22 06:29:41 51°13.917 2°55.625 205.3 3.3 21 -999
2010-04-22 06:29:46 51°13.921 2°55.628 208.2 3.2 23 5.2
2010-04-22 06:29:51 51°13.925 2°55.631 210.8 3.3 27 -999
2010-04-22 06:29:55 51°13.928 2°55.634 213 3.4 31 4.7
2010-04-22 06:30:01 51°13.933 2°55.639 216.2 3.3 32 -999
2010-04-22 06:30:06 51°13.936 2°55.643 220.3 3.2 36 -999
2010-04-22 06:30:11 51°13.94 2°55.647 223.4 2.9 38 6.3
2010-04-22 06:30:16 51°13.942 2°55.651 226.1 2.6 42 -999
2010-04-22 06:30:21 51°13.945 2°55.654 229 2.3 42 -999
2010-04-22 06:30:26 51°13.947 2°55.657 232.4 2 44 -999
2010-04-22 06:30:31 51°13.948 2°55.659 235 1.4 40 -999
2010-04-22 06:30:36 51°13.949 2°55.66 237.7 0.6 35 -999
2010-04-22 06:30:41 51°13.949 2°55.659 242 0.5 329 -999
2010-04-22 06:30:46 51°13.949 2°55.657 247.3 0.9 272 -999
2010-04-22 06:30:51 51°13.949 2°55.654 253.9 1.5 271 -999
2010-04-22 06:30:55 51°13.95 2°55.65 261.9 2 278 -999
2010-04-22 06:31:01 51°13.95 2°55.644 268.1 2.4 280 -999
2010-04-22 06:31:06 51°13.951 2°55.638 273.7 2.8 287 13.8
2010-04-22 06:31:11 51°13.953 2°55.631 280.2 3.2 291 13.7
2010-04-22 06:31:15 51°13.955 2°55.626 287.4 3.6 297 -999
2010-04-22 06:31:21 51°13.958 2°55.616 294.3 4.1 299 -999
2010-04-22 06:31:26 51°13.962 2°55.608 300.1 4.6 307 -999
2010-04-22 06:31:31 51°13.966 2°55.599 304.3 5.1 309 13.4
2010-04-22 06:31:35 51°13.971 2°55.592 307.8 5.5 312 13.1
2010-04-22 06:31:40 51°13.977 2°55.583 310 6 316 13.3
2010-04-22 06:31:45 51°13.983 2°55.574 314.9 6.5 320 -999
2010-04-22 06:31:51 51°13.992 2°55.563 318.5 6.8 323 -999
2010-04-22 06:31:55 51°13.999 2°55.555 322.9 7 324 13.2
2010-04-22 06:32:00 51°14.007 2°55.547 325 7 328 13.2
2010-04-22 06:32:05 51°14.015 2°55.539 328.1 7 328 13.2
2010-04-22 06:32:11 51°14.025 2°55.529 329.7 7.2 330 -999
2010-04-22 06:32:15 51°14.033 2°55.523 330.7 7.3 331 13.3
2010-04-22 06:32:20 51°14.042 2°55.515 331.8 7.4 331 13.2
2010-04-22 06:32:25 51°14.051 2°55.507 333 7.6 332 13.1
2010-04-22 06:32:30 51°14.06 2°55.499 333 7.6 331 13
2010-04-22 06:32:35 51°14.069 2°55.491 332.4 7.6 332 5.1
2010-04-22 06:32:39 51°14.077 2°55.484 332.6 7.7 332 13.1
2010-04-22 06:32:45 51°14.088 2°55.475 333.2 7.7 332 -999
2010-04-22 06:32:50 51°14.097 2°55.467 333.6 7.7 331 4.6
2010-04-22 06:32:55 51°14.107 2°55.458 333.1 7.7 330 -999
2010-04-22 06:33:00 51°14.116 2°55.449 332 7.8 331 -999
2010-04-22 06:33:06 51°14.127 2°55.439 331.9 7.8 330 -999
2010-04-22 06:33:11 51°14.137 2°55.431 332.2 7.8 332 -999
2010-04-22 06:33:15 51°14.144 2°55.424 332.8 7.9 330 5.2
2010-04-22 06:33:21 51°14.156 2°55.414 332.3 7.9 331 -999
2010-04-22 06:33:26 51°14.165 2°55.405 332.2 7.8 331 -999
2010-04-22 06:33:31 51°14.175 2°55.397 332.7 7.9 332 4.5
2010-04-22 06:33:35 51°14.183 2°55.39 332.8 7.9 330 13.3
2010-04-22 06:33:40 51°14.192 2°55.381 332.2 8 330 -999
2010-04-22 06:33:46 51°14.204 2°55.37 331.3 8.2 329 13.1
2010-04-22 06:33:51 51°14.214 2°55.36 330.7 8.3 328 13.3
2010-04-22 06:33:55 51°14.222 2°55.352 330.3 8.5 328 13.2
2010-04-22 06:34:00 51°14.232 2°55.341 329.7 8.5 326 13
2010-04-22 06:34:05 51°14.241 2°55.331 328 8.5 326 13
2010-04-22 06:34:10 51°14.251 2°55.32 327.4 8.5 326 12.3
2010-04-22 06:34:15 51°14.261 2°55.31 327.4 8.5 326 12.8
2010-04-22 06:34:19 51°14.269 2°55.302 327.6 8.4 327 12.9
2010-04-22 06:34:24 51°14.279 2°55.291 327.8 8.5 326 12.7
2010-04-22 06:34:29 51°14.289 2°55.281 328.2 8.7 326 13
2010-04-22 06:34:34 51°14.299 2°55.269 328.1 9 325 13.2
2010-04-22 06:34:39 51°14.309 2°55.257 327.2 9.2 323 13.2
2010-04-22 06:34:43 51°14.318 2°55.247 325.7 9.6 323 13.2
2010-04-22 06:34:49 51°14.331 2°55.23 324.4 9.9 321 13.2
2010-04-22 06:34:54 51°14.342 2°55.217 323.8 10 324 13.2
2010-04-22 06:34:59 51°14.353 2°55.204 325 10 323 12.5
2010-04-22 06:35:03 51°14.362 2°55.194 325.7 10 324 12.7
2010-04-22 06:35:08 51°14.373 2°55.181 326.4 10 325 13.2
2010-04-22 06:35:13 51°14.384 2°55.168 327 9.9 326 13.3
2010-04-22 06:35:18 51°14.396 2°55.156 327.8 10 326 13.2
2010-04-22 06:35:23 51°14.407 2°55.143 328.7 10.1 326 12.9
2010-04-22 06:35:27 51°14.417 2°55.134 328.9 10.2 327 12.6
2010-04-22 06:35:32 51°14.429 2°55.121 328.2 10.3 326 12.3
2010-04-22 06:35:37 51°14.441 2°55.108 327.3 10.4 326 12.9
2010-04-22 06:35:42 51°14.453 2°55.095 327.4 10.7 326 13.4
2010-04-22 06:35:47 51°14.466 2°55.082 327.8 10.8 327 13.6
2010-04-22 06:35:52 51°14.478 2°55.069 328.7 10.7 328 13.6
2010-04-22 06:35:57 51°14.491 2°55.056 328.9 10.8 327 13.6
2010-04-22 06:36:02 51°14.504 2°55.043 328 10.7 327 13.3
2010-04-22 06:36:07 51°14.516 2°55.03 326.9 10.8 327 13
2010-04-22 06:36:12 51°14.529 2°55.018 326.3 10.8 330 13.4
2010-04-22 06:36:17 51°14.542 2°55.007 327.1 10.8 332 13.7
2010-04-22 06:36:22 51°14.556 2°54.996 327.8 10.8 330 13.9
2010-04-22 06:36:27 51°14.568 2°54.983 325.9 10.9 328 14.2
2010-04-22 06:36:32 51°14.581 2°54.969 322.3 10.9 324 14
2010-04-22 06:36:37 51°14.592 2°54.954 318.7 10.8 321 13.6
2010-04-22 06:36:42 51°14.604 2°54.939 316.4 10.8 322 13.8
2010-04-22 06:36:47 51°14.616 2°54.924 316 10.8 321 14
2010-04-22 06:36:52 51°14.628 2°54.91 315.8 10.7 321 14
2010-04-22 06:36:57 51°14.639 2°54.895 315.8 10.6 322 13.6
2010-04-22 06:37:02 51°14.651 2°54.881 315.9 10.6 321 13.7
2010-04-22 06:37:07 51°14.662 2°54.865 315.8 10.6 321 13.8
2010-04-22 06:37:12 51°14.673 2°54.85 314.9 10.9 319 14.8
2010-04-22 06:37:17 51°14.685 2°54.833 314 11.3 318 14.5
2010-04-22 06:37:22 51°14.696 2°54.816 312.9 11.7 317 14.3
2010-04-22 06:37:27 51°14.709 2°54.798 312.7 12 317 14.7
2010-04-22 06:37:32 51°14.721 2°54.779 312.9 12.5 318 14.4
2010-04-22 06:37:37 51°14.734 2°54.76 313.8 12.9 318 14.8
2010-04-22 06:37:42 51°14.748 2°54.741 315.1 13.1 320 14.5
2010-04-22 06:37:47 51°14.762 2°54.723 316.5 13.3 320 14.4
2010-04-22 06:37:52 51°14.776 2°54.704 316.6 13.4 320 13.9
2010-04-22 06:37:57 51°14.79 2°54.685 316 13.5 319 14.1
2010-04-22 06:38:02 51°14.805 2°54.666 316.3 13.6 321 14.5
2010-04-22 06:38:07 51°14.819 2°54.647 317.6 13.5 322 14.8
2010-04-22 06:38:12 51°14.834 2°54.628 318.1 13.4 321 13.7
2010-04-22 06:38:17 51°14.848 2°54.609 317.9 13.5 320 13.4
2010-04-22 06:38:22 51°14.863 2°54.589 317.5 13.6 321 13.7
2010-04-22 06:38:27 51°14.878 2°54.57 317.3 13.7 320 13.5
2010-04-22 06:38:32 51°14.892 2°54.551 317 13.7 321 13.4
2010-04-22 06:38:37 51°14.908 2°54.533 317.4 13.8 323 13.8
2010-04-22 06:38:42 51°14.923 2°54.515 319.1 13.7 325 12.4
2010-04-22 06:38:47 51°14.939 2°54.498 320.8 13.7 327 12.2
2010-04-22 06:38:52 51°14.955 2°54.482 322.3 13.8 328 12.4
2010-04-22 06:38:57 51°14.972 2°54.466 323.7 13.8 329 12.2
2010-04-22 06:39:02 51°14.988 2°54.45 324.2 13.9 327 12.1
2010-04-22 06:39:07 51°15.004 2°54.434 323.8 13.9 329 12.6
2010-04-22 06:39:12 51°15.021 2°54.418 325.2 13.8 329 12.3
2010-04-22 06:39:17 51°15.037 2°54.402 325 13.8 327 12.1
2010-04-22 06:39:22 51°15.053 2°54.385 324.3 13.9 327 12.6
2010-04-22 06:39:27 51°15.069 2°54.368 324.1 13.9 326 12.7
2010-04-22 06:39:32 51°15.085 2°54.351 324 14.1 326 13.1
2010-04-22 06:39:37 51°15.101 2°54.334 324.1 13.9 326 13
2010-04-22 06:39:42 51°15.117 2°54.317 324.1 13.9 326 12.5
2010-04-22 06:39:47 51°15.133 2°54.3 323.9 14 326 12.3
2010-04-22 06:39:52 51°15.149 2°54.283 324.2 13.9 327 12.2
2010-04-22 06:39:57 51°15.165 2°54.266 324.2 13.8 326 11.9
2010-04-22 06:40:02 51°15.18 2°54.249 324.2 13.9 326 12.3
2010-04-22 06:40:07 51°15.197 2°54.232 324.1 13.9 325 12.6
2010-04-22 06:40:12 51°15.212 2°54.215 324 13.9 326 12.3
2010-04-22 06:40:17 51°15.228 2°54.197 324 13.8 326 12.2
2010-04-22 06:40:22 51°15.244 2°54.18 324.4 13.9 326 12.5
2010-04-22 06:40:27 51°15.26 2°54.163 324.5 14 326 12.4
2010-04-22 06:40:32 51°15.276 2°54.146 324.5 13.9 326 11.9
2010-04-22 06:40:37 51°15.292 2°54.129 324.5 13.8 327 12.2
2010-04-22 06:40:43 51°15.312 2°54.109 324.5 13.9 327 12.5
2010-04-22 06:40:47 51°15.325 2°54.095 324.6 13.8 327 12.3
2010-04-22 06:40:52 51°15.341 2°54.079 324.7 14 328 12.8
2010-04-22 06:40:57 51°15.357 2°54.062 324.8 13.9 327 12.6
2010-04-22 06:41:02 51°15.374 2°54.046 325 13.9 328 12.7
2010-04-22 06:41:07 51°15.39 2°54.029 325.2 13.9 328 12.7
2010-04-22 06:41:12 51°15.406 2°54.013 325.1 14 327 13
2010-04-22 06:41:17 51°15.423 2°53.996 324.6 14 327 13.1
2010-04-22 06:41:22 51°15.439 2°53.979 324.3 14.1 327 13.2
2010-04-22 06:41:27 51°15.455 2°53.962 324.1 14 327 12.8
2010-04-22 06:41:32 51°15.471 2°53.945 324.1 13.9 326 12.7
2010-04-22 06:41:37 51°15.487 2°53.928 323.8 13.8 327 12.6
2010-04-22 06:41:42 51°15.503 2°53.911 323.7 13.9 326 13.6
2010-04-22 06:41:47 51°15.519 2°53.894 323.8 13.7 326 13.4
2010-04-22 06:41:52 51°15.535 2°53.877 323.8 13.8 327 13
2010-04-22 06:41:57 51°15.551 2°53.86 323.8 13.8 327 13.1
2010-04-22 06:42:02 51°15.567 2°53.844 323.9 13.8 328 13.3
2010-04-22 06:42:07 51°15.583 2°53.828 324.1 13.7 327 12.6
2010-04-22 06:42:12 51°15.599 2°53.811 324 13.7 327 13.2
2010-04-22 06:42:17 51°15.615 2°53.795 324 13.9 327 13.5
2010-04-22 06:42:22 51°15.631 2°53.778 323.8 13.9 327 13.4
2010-04-22 06:42:27 51°15.647 2°53.761 324.1 13.8 327 13
2010-04-22 06:42:32 51°15.663 2°53.745 323.9 13.8 326 13.7
2010-04-22 06:42:37 51°15.678 2°53.727 323.2 13.7 324 14
2010-04-22 06:42:42 51°15.694 2°53.709 322.1 13.7 325 13
2010-04-22 06:42:47 51°15.709 2°53.691 321.2 13.8 323 13.4
2010-04-22 06:42:52 51°15.725 2°53.673 320.6 13.8 323 13.4
2010-04-22 06:42:57 51°15.74 2°53.655 320.5 13.6 323 13.1
2010-04-22 06:43:02 51°15.755 2°53.637 320.2 13.6 324 12.9
2010-04-22 06:43:07 51°15.77 2°53.619 319.8 13.6 323 13
2010-04-22 06:43:12 51°15.785 2°53.601 319.6 13.5 324 13
2010-04-22 06:43:17 51°15.801 2°53.583 319.5 13.6 323 13
2010-04-22 06:43:23 51°15.819 2°53.561 319.4 13.7 323 13.4
2010-04-22 06:43:27 51°15.831 2°53.546 319.8 13.8 323 13.8
2010-04-22 06:43:32 51°15.846 2°53.527 319.7 13.8 323 14
2010-04-22 06:43:37 51°15.861 2°53.509 319.8 13.8 322 14
2010-04-22 06:43:42 51°15.877 2°53.491 319.5 13.8 323 14.2
2010-04-22 06:43:47 51°15.892 2°53.472 319.7 13.9 323 14
2010-04-22 06:43:52 51°15.907 2°53.454 319.6 13.8 323 13.8
2010-04-22 06:43:57 51°15.923 2°53.436 319.7 13.7 323 13.6
2010-04-22 06:44:02 51°15.938 2°53.417 319.5 13.7 323 13.3
2010-04-22 06:44:07 51°15.953 2°53.399 319.6 13.8 324 13.5
2010-04-22 06:44:12 51°15.969 2°53.381 320 13.9 326 13.9
2010-04-22 06:44:17 51°15.984 2°53.364 321.4 13.9 325 14.5
2010-04-22 06:44:22 51°16.001 2°53.348 324.2 14.1 331 14.8
2010-04-22 06:44:27 51°16.018 2°53.333 325.9 13.9 329 14.6
2010-04-22 06:44:32 51°16.035 2°53.32 327.5 13.9 333 14.1
2010-04-22 06:44:37 51°16.052 2°53.306 329.2 14 332 14.3
2010-04-22 06:44:42 51°16.07 2°53.293 330.3 14.1 336 14.3
2010-04-22 06:44:47 51°16.087 2°53.279 331.6 14.1 335 14
2010-04-22 06:44:52 51°16.105 2°53.267 332.1 14.1 336 13.9
2010-04-22 06:44:57 51°16.123 2°53.255 333.5 14.2 337 14.1
2010-04-22 06:45:02 51°16.141 2°53.242 334.5 14.2 338 14.4
2010-04-22 06:45:07 51°16.16 2°53.231 335.3 14.1 339 14
2010-04-22 06:45:12 51°16.178 2°53.22 336.1 14.2 339 14.2
2010-04-22 06:45:17 51°16.197 2°53.209 336.7 14.1 340 13.7
2010-04-22 06:45:22 51°16.215 2°53.198 337 14 340 13.4
2010-04-22 06:45:27 51°16.233 2°53.188 337.6 14.1 341 13.5
2010-04-22 06:45:32 51°16.252 2°53.177 337.6 14.1 340 13.8
2010-04-22 06:45:37 51°16.27 2°53.166 337.8 14.1 340 13.9
2010-04-22 06:45:42 51°16.289 2°53.156 337.8 14.2 340 14.3
2010-04-22 06:45:47 51°16.307 2°53.145 337.5 14.2 340 14.1
2010-04-22 06:45:52 51°16.326 2°53.134 337.4 14.2 340 14
2010-04-22 06:45:57 51°16.344 2°53.124 337.4 14.1 340 13.8
2010-04-22 06:46:02 51°16.363 2°53.113 336.9 14.1 341 13.8
2010-04-22 06:46:07 51°16.382 2°53.102 337 14.1 340 13.7
2010-04-22 06:46:12 51°16.4 2°53.091 337.3 14.2 340 13.7
2010-04-22 06:46:17 51°16.419 2°53.081 337.5 14.3 340 14.1
2010-04-22 06:46:22 51°16.437 2°53.07 337.7 14.2 340 13.8
2010-04-22 06:46:27 51°16.456 2°53.059 337.6 14.2 340 14.1
2010-04-22 06:46:32 51°16.474 2°53.048 337.4 14.3 340 14.3
2010-04-22 06:46:37 51°16.493 2°53.038 337.2 14.2 340 13.7
2010-04-22 06:46:42 51°16.512 2°53.028 337.4 14.3 340 14.3
2010-04-22 06:46:47 51°16.53 2°53.017 337.5 14.2 340 13.6
2010-04-22 06:46:52 51°16.549 2°53.007 337.3 14 341 13.6
2010-04-22 06:46:57 51°16.567 2°52.996 337.4 14 341 14.1
2010-04-22 06:47:03 51°16.589 2°52.984 337.5 14.1 341 13.7
2010-04-22 06:47:07 51°16.604 2°52.976 337.6 14.2 341 13.3
2010-04-22 06:47:12 51°16.623 2°52.965 336.8 14.1 338 13.5
2010-04-22 06:47:17 51°16.641 2°52.954 335.7 14 339 14
2010-04-22 06:47:22 51°16.659 2°52.942 335.1 13.9 337 13.4
2010-04-22 06:47:27 51°16.677 2°52.93 334.5 13.9 338 13.3
2010-04-22 06:47:32 51°16.695 2°52.919 334 13.9 338 12.7
2010-04-22 06:47:37 51°16.712 2°52.907 333.8 13.8 338 12.5
2010-04-22 06:47:43 51°16.734 2°52.893 334 13.9 338 12.9
2010-04-22 06:47:47 51°16.748 2°52.883 333.8 13.9 337 12.2
2010-04-22 06:47:52 51°16.766 2°52.871 333.6 14 337 12.2
2010-04-22 06:47:57 51°16.784 2°52.859 333.8 14 337 12.3
2010-04-22 06:48:02 51°16.802 2°52.847 333.8 14 338 11.9
2010-04-22 06:48:07 51°16.819 2°52.835 333.8 14 337 12
2010-04-22 06:48:11 51°16.834 2°52.826 333.8 13.9 337 11.2
2010-04-22 06:48:17 51°16.855 2°52.811 333.7 13.9 337 11.1
2010-04-22 06:48:22 51°16.873 2°52.799 333.4 14 337 11.4
2010-04-22 06:48:27 51°16.891 2°52.787 333.4 14 337 11.9
2010-04-22 06:48:32 51°16.909 2°52.775 333.9 13.9 336 11.5
2010-04-22 06:48:37 51°16.926 2°52.763 333.5 14 338 11.4
2010-04-22 06:48:42 51°16.944 2°52.75 333.4 14 335 11.8
2010-04-22 06:48:47 51°16.962 2°52.738 333.2 14 337 11.7
2010-04-22 06:48:52 51°16.98 2°52.725 333.3 14 336 11.7
2010-04-22 06:48:57 51°16.998 2°52.713 333.2 14 336 11.7
2010-04-22 06:49:02 51°17.015 2°52.699 332.6 14.1 335 11.8
2010-04-22 06:49:07 51°17.033 2°52.687 333.2 14.1 336 12.5
2010-04-22 06:49:12 51°17.051 2°52.674 333.1 14.2 335 12.6
2010-04-22 06:49:17 51°17.069 2°52.66 333.2 14.1 335 11.7
2010-04-22 06:49:22 51°17.087 2°52.647 333 14.1 335 11.9
2010-04-22 06:49:27 51°17.104 2°52.634 333 14.1 336 11.5
2010-04-22 06:49:32 51°17.122 2°52.622 333.2 14.1 337 11.5
2010-04-22 06:49:37 51°17.14 2°52.609 333.2 13.9 337 11.2
2010-04-22 06:49:42 51°17.158 2°52.599 336.2 14.2 343 11.8
2010-04-22 06:49:47 51°17.178 2°52.591 341 14.3 345 11.9
2010-04-22 06:49:52 51°17.197 2°52.584 343.2 14.3 349 12
2010-04-22 06:49:57 51°17.216 2°52.579 346.3 14.2 350 11.6
2010-04-22 06:50:03 51°17.24 2°52.573 348.9 14.3 352 12
2010-04-22 06:50:07 51°17.256 2°52.571 350.5 14.3 354 12
2010-04-22 06:50:12 51°17.276 2°52.568 352.7 14.4 355 11.8
2010-04-22 06:50:17 51°17.296 2°52.566 353.4 14.4 356 12
2010-04-22 06:50:22 51°17.316 2°52.565 355 14.6 357 12
2010-04-22 06:50:27 51°17.336 2°52.563 356 14.5 358 12.3
2010-04-22 06:50:32 51°17.356 2°52.563 356.8 14.4 359 12.5
2010-04-22 06:50:37 51°17.376 2°52.561 357.2 14.7 359 12.8
2010-04-22 06:50:42 51°17.396 2°52.561 357.9 14.7 359 13.1
2010-04-22 06:50:47 51°17.417 2°52.561 358.2 14.6 359 12.3
2010-04-22 06:50:52 51°17.436 2°52.561 358.5 14.5 -999 12
2010-04-22 06:50:57 51°17.457 2°52.56 358.6 14.5 359 12.3
2010-04-22 06:51:02 51°17.476 2°52.56 358.5 14.5 -999 12.3
2010-04-22 06:51:07 51°17.496 2°52.56 358.3 14.3 359 12.6
2010-04-22 06:51:12 51°17.517 2°52.559 358.6 14.5 359 12.9
2010-04-22 06:51:17 51°17.537 2°52.559 358.5 14.4 359 12
2010-04-22 06:51:22 51°17.557 2°52.558 358 14.5 359 12.4
2010-04-22 06:51:27 51°17.577 2°52.558 358.1 14.5 359 11.9
2010-04-22 06:51:32 51°17.597 2°52.557 357.9 14.6 359 12.4
2010-04-22 06:51:37 51°17.617 2°52.556 357.7 14.6 358 12.7
2010-04-22 06:51:42 51°17.637 2°52.555 357.4 14.6 359 12.7
2010-04-22 06:51:47 51°17.657 2°52.554 357.6 14.6 358 12.8
2010-04-22 06:51:52 51°17.677 2°52.554 357.5 14.5 359 13.2
2010-04-22 06:51:57 51°17.697 2°52.553 357.5 14.4 358 12.9
2010-04-22 06:52:02 51°17.717 2°52.552 357.1 14.5 358 12.4
2010-04-22 06:52:07 51°17.737 2°52.551 357 14.5 358 12.7
2010-04-22 06:52:12 51°17.757 2°52.549 357 14.4 358 12.7
2010-04-22 06:52:17 51°17.777 2°52.549 356.8 14.3 359 11.8
2010-04-22 06:52:22 51°17.797 2°52.547 356.8 14.3 357 12.8
2010-04-22 06:52:27 51°17.817 2°52.546 356.6 14.3 358 12.4
2010-04-22 06:52:32 51°17.837 2°52.545 356.5 14.5 357 12.2
2010-04-22 06:52:37 51°17.857 2°52.544 356.3 14.6 358 12.5
2010-04-22 06:52:42 51°17.877 2°52.542 356.2 14.6 358 13.1
2010-04-22 06:52:47 51°17.897 2°52.541 356.5 14.4 358 13.3
2010-04-22 06:52:52 51°17.917 2°52.539 356.5 14.6 357 13.7
2010-04-22 06:52:57 51°17.937 2°52.538 356.5 14.5 357 12.9
2010-04-22 06:53:02 51°17.957 2°52.536 356.3 14.4 357 12.8
2010-04-22 06:53:07 51°17.977 2°52.535 356.1 14.5 358 12.5
2010-04-22 06:53:12 51°17.997 2°52.533 356.2 14.5 357 12.7
2010-04-22 06:53:17 51°18.017 2°52.532 356 14.5 357 12.9
2010-04-22 06:53:22 51°18.037 2°52.53 356.2 14.5 357 12.8
2010-04-22 06:53:27 51°18.057 2°52.529 356.3 14.6 359 12.9
2010-04-22 06:53:32 51°18.077 2°52.528 356.8 14.7 358 12.7
2010-04-22 06:53:37 51°18.098 2°52.528 356.9 14.5 359 12.6
2010-04-22 06:53:42 51°18.117 2°52.526 356.9 14.5 357 12.6
2010-04-22 06:53:47 51°18.138 2°52.525 356.5 14.6 358 12.9
2010-04-22 06:53:52 51°18.158 2°52.522 355.8 14.6 356 12.6
2010-04-22 06:53:57 51°18.178 2°52.521 355.7 14.4 358 12.3
2010-04-22 06:54:02 51°18.198 2°52.52 356 14.5 357 12.7
2010-04-22 06:54:07 51°18.218 2°52.518 355.8 14.6 357 12.8
2010-04-22 06:54:12 51°18.238 2°52.516 355.7 14.5 357 12.8
2010-04-22 06:54:17 51°18.258 2°52.514 355.1 14.4 355 12.5
2010-04-22 06:54:22 51°18.278 2°52.512 355 14.4 357 12.6
2010-04-22 06:54:27 51°18.298 2°52.509 355.4 14.4 355 12.9
2010-04-22 06:54:32 51°18.318 2°52.507 355.5 14.4 356 13.2
2010-04-22 06:54:37 51°18.338 2°52.505 355.3 14.3 356 12.8
2010-04-22 06:54:42 51°18.357 2°52.502 355 14.4 357 13.5
2010-04-22 06:54:47 51°18.377 2°52.5 355.6 14.4 357 13.6
2010-04-22 06:54:52 51°18.397 2°52.498 356 14.5 356 13.3
2010-04-22 06:54:57 51°18.417 2°52.496 355.7 14.4 357 13.9
2010-04-22 06:55:02 51°18.437 2°52.494 356 14.1 356 13.2
2010-04-22 06:55:07 51°18.456 2°52.492 355.8 14.3 356 13.3
2010-04-22 06:55:12 51°18.476 2°52.491 355.6 14.3 357 13.6
2010-04-22 06:55:17 51°18.496 2°52.489 355.8 14.4 355 13.6
2010-04-22 06:55:22 51°18.516 2°52.486 355.1 14.2 356 13.3
2010-04-22 06:55:27 51°18.535 2°52.485 355.7 14.2 357 13.4
2010-04-22 06:55:32 51°18.555 2°52.482 355.8 14.2 355 14.1
2010-04-22 06:55:37 51°18.575 2°52.48 355.6 14.3 357 13.6
2010-04-22 06:55:42 51°18.595 2°52.479 355.7 14.2 356 13.4
2010-04-22 06:55:47 51°18.615 2°52.477 355.7 14.3 357 13.6
2010-04-22 06:55:52 51°18.635 2°52.475 355.7 14.4 356 13.9
2010-04-22 06:55:57 51°18.654 2°52.473 355.3 14.3 357 13.6
2010-04-22 06:56:02 51°18.674 2°52.471 355.7 14.4 356 13.9
2010-04-22 06:56:07 51°18.694 2°52.468 355.5 14.4 355 14
2010-04-22 06:56:12 51°18.714 2°52.467 355.7 14.3 357 13.5
2010-04-22 06:56:17 51°18.734 2°52.464 355.5 14.3 355 13.7
2010-04-22 06:56:22 51°18.753 2°52.463 355.5 14.4 357 14.4
2010-04-22 06:56:27 51°18.774 2°52.461 355.7 14.4 356 14.6
2010-04-22 06:56:32 51°18.793 2°52.459 355.7 14.4 357 14.3
2010-04-22 06:56:37 51°18.813 2°52.457 355.9 14.5 356 14.4
2010-04-22 06:56:42 51°18.833 2°52.455 356 14.4 357 14.1
2010-04-22 06:56:47 51°18.853 2°52.453 356.1 14.4 357 14.7
2010-04-22 06:56:52 51°18.873 2°52.451 355.9 14.5 357 14.9
2010-04-22 06:56:57 51°18.893 2°52.449 355.4 14.4 356 14.6
2010-04-22 06:57:02 51°18.913 2°52.447 355.6 14.1 357 14.4
2010-04-22 06:57:07 51°18.933 2°52.445 355.5 14.2 356 14.9
2010-04-22 06:57:12 51°18.952 2°52.443 355.7 14.2 357 15.3
2010-04-22 06:57:17 51°18.972 2°52.441 355.8 14.3 356 15.6
2010-04-22 06:57:22 51°18.992 2°52.439 355.7 14.2 356 15.6
2010-04-22 06:57:27 51°19.011 2°52.437 355.7 14.1 356 15.1
2010-04-22 06:57:32 51°19.031 2°52.435 355.2 14.3 356 15.7
2010-04-22 06:57:37 51°19.051 2°52.433 355.2 14 356 14.9
2010-04-22 06:57:42 51°19.07 2°52.431 355.2 13.8 356 14.7
2010-04-22 06:57:47 51°19.089 2°52.428 355 13.8 355 15.1
2010-04-22 06:57:52 51°19.109 2°52.426 355.2 13.8 357 15.6
2010-04-22 06:57:57 51°19.128 2°52.425 355.3 14.1 356 16.4
2010-04-22 06:58:02 51°19.148 2°52.422 355.5 14.1 357 15.9
2010-04-22 06:58:07 51°19.168 2°52.421 355.7 14.3 356 16.1
2010-04-22 06:58:12 51°19.188 2°52.419 355.8 14.3 356 16.1
2010-04-22 06:58:17 51°19.208 2°52.416 355.6 14.2 356 15.9
2010-04-22 06:58:22 51°19.227 2°52.414 355.2 14.2 356 16.2
2010-04-22 06:58:27 51°19.247 2°52.412 355.5 14.4 356 16.4
2010-04-22 06:58:32 51°19.267 2°52.41 355.5 14.3 356 16.2
2010-04-22 06:58:37 51°19.287 2°52.407 355.3 14.4 356 16.7
2010-04-22 06:58:42 51°19.307 2°52.405 355.4 14.4 355 16.8
2010-04-22 06:58:47 51°19.327 2°52.403 355 14.4 356 16.7
2010-04-22 06:58:52 51°19.347 2°52.401 355.5 14.4 356 16.9
2010-04-22 06:58:57 51°19.367 2°52.399 355.7 14.5 357 17.1
2010-04-22 06:59:02 51°19.386 2°52.398 355.7 14.5 357 17.8
2010-04-22 06:59:07 51°19.407 2°52.397 356.5 14.4 359 17.1
2010-04-22 06:59:12 51°19.427 2°52.397 357.6 14.5 359 16.9
2010-04-22 06:59:17 51°19.447 2°52.396 358.6 14.6 359 17.7
2010-04-22 06:59:22 51°19.467 2°52.397 359 14.6 1 18.3
2010-04-22 06:59:27 51°19.487 2°52.397 359.7 14.5 -999 17.4
2010-04-22 06:59:32 51°19.507 2°52.398 359.9 14.4 1 16.9
2010-04-22 06:59:37 51°19.527 2°52.398 0.4 14.4 2 17.2
2010-04-22 06:59:42 51°19.547 2°52.399 0.5 14.1 1 16.6
2010-04-22 06:59:47 51°19.567 2°52.4 0.7 14.2 2 17.6
2010-04-22 06:59:52 51°19.587 2°52.401 0.8 14.4 2 17.9
2010-04-22 06:59:57 51°19.607 2°52.402 1 14.5 2 17.6
2010-04-22 07:00:02 51°19.627 2°52.403 1 14.6 2 17.8
2010-04-22 07:00:07 51°19.647 2°52.404 1.3 14.6 2 18.2
2010-04-22 07:00:12 51°19.668 2°52.406 1.3 14.7 2 18
2010-04-22 07:00:17 51°19.688 2°52.406 0.7 14.6 1 17.7
2010-04-22 07:00:22 51°19.708 2°52.408 0.8 14.7 3 17.4
2010-04-22 07:00:27 51°19.729 2°52.409 0.9 14.8 1 17.3
2010-04-22 07:00:32 51°19.749 2°52.41 0.8 14.6 2 17
2010-04-22 07:00:37 51°19.769 2°52.411 0.8 14.6 1 18.1
2010-04-22 07:00:42 51°19.789 2°52.412 0.3 14.6 2 18
2010-04-22 07:00:47 51°19.809 2°52.413 0.7 14.5 2 18.9
2010-04-22 07:00:52 51°19.83 2°52.414 0.8 14.5 2 18.5
2010-04-22 07:00:57 51°19.85 2°52.414 0.1 14.6 1 18.8
2010-04-22 07:01:02 51°19.87 2°52.416 0.1 14.6 2 18.4
2010-04-22 07:01:07 51°19.89 2°52.416 0.2 14.7 1 18.2
2010-04-22 07:01:12 51°19.911 2°52.417 0.2 14.6 2 18.2
2010-04-22 07:01:17 51°19.931 2°52.418 0.1 14.6 2 18.7
2010-04-22 07:01:22 51°19.951 2°52.42 0.8 14.6 2 18.4
2010-04-22 07:01:27 51°19.971 2°52.421 0.4 14.6 1 18.4
2010-04-22 07:01:32 51°19.992 2°52.422 0.4 14.7 2 18.7
2010-04-22 07:01:37 51°20.012 2°52.422 0.2 14.6 1 18.4
2010-04-22 07:01:42 51°20.032 2°52.424 0.1 14.7 2 18.4
2010-04-22 07:01:47 51°20.053 2°52.425 0.3 14.6 1 17.8
2010-04-22 07:01:52 51°20.073 2°52.426 0.4 14.6 3 17.9
2010-04-22 07:01:57 51°20.093 2°52.427 0.6 14.7 1 18.8
2010-04-22 07:02:02 51°20.113 2°52.428 0.1 14.7 2 18.5
2010-04-22 07:02:07 51°20.134 2°52.429 0.2 14.7 2 18.3
2010-04-22 07:02:12 51°20.154 2°52.43 -999 14.5 1 17.5
2010-04-22 07:02:17 51°20.174 2°52.431 0.4 14.5 2 18.2
2010-04-22 07:02:22 51°20.194 2°52.432 0.3 14.4 1 19
2010-04-22 07:02:27 51°20.214 2°52.433 0.5 14.4 2 18.1
2010-04-22 07:02:32 51°20.234 2°52.434 0.4 14.4 1 18.3
2010-04-22 07:02:37 51°20.254 2°52.435 0.4 14.5 2 18.3
2010-04-22 07:02:42 51°20.274 2°52.436 0.4 14.5 2 18.3
2010-04-22 07:02:47 51°20.294 2°52.437 0.4 14.4 1 17.6
2010-04-22 07:02:52 51°20.314 2°52.438 0.7 14.5 1 17.8
2010-04-22 07:02:57 51°20.334 2°52.438 0.5 14.6 1 17.7
2010-04-22 07:03:02 51°20.355 2°52.439 0.1 14.6 1 18.1
2010-04-22 07:03:07 51°20.375 2°52.439 0.1 14.6 1 18
2010-04-22 07:03:12 51°20.395 2°52.44 0.1 14.5 1 17.7
2010-04-22 07:03:17 51°20.415 2°52.44 0.1 14.5 1 18.1
2010-04-22 07:03:22 51°20.435 2°52.44 359.8 14.5 -999 17.4
2010-04-22 07:03:27 51°20.455 2°52.441 0.1 14.3 1 18.9
2010-04-22 07:03:32 51°20.475 2°52.441 0.6 14.4 1 18.6
2010-04-22 07:03:37 51°20.495 2°52.441 -999 14.1 -999 17.7
2010-04-22 07:03:42 51°20.514 2°52.442 0.1 14.1 1 16.9
2010-04-22 07:03:47 51°20.534 2°52.442 0.3 14.1 -999 18.1
2010-04-22 07:03:52 51°20.553 2°52.443 0.5 14.1 2 17.5
2010-04-22 07:03:57 51°20.573 2°52.443 0.2 14.2 1 17.5
2010-04-22 07:04:02 51°20.593 2°52.446 2 14.2 4 17
2010-04-22 07:04:07 51°20.613 2°52.448 2.9 14.1 3 16
2010-04-22 07:04:12 51°20.632 2°52.45 3.4 14.2 5 16
2010-04-22 07:04:17 51°20.652 2°52.453 4.4 14.3 4 16
2010-04-22 07:04:22 51°20.672 2°52.456 4.7 14.3 6 15.8
2010-04-22 07:04:27 51°20.692 2°52.46 5.4 14.5 6 15.9
2010-04-22 07:04:32 51°20.712 2°52.464 5.9 14.3 8 15.6
2010-04-22 07:04:37 51°20.731 2°52.47 8.1 14.1 8 16.3
2010-04-22 07:04:42 51°20.751 2°52.474 8.5 14.4 10 16.2
2010-04-22 07:04:47 51°20.77 2°52.48 9.6 14.3 11 16.9
2010-04-22 07:04:52 51°20.79 2°52.485 9.6 14.4 9 16.5
2010-04-22 07:04:57 51°20.809 2°52.491 10.2 14.4 11 16.6
2010-04-22 07:05:02 51°20.829 2°52.497 10.5 14.4 12 16.5
2010-04-22 07:05:07 51°20.848 2°52.504 11.2 14.6 12 16.6
2010-04-22 07:05:12 51°20.868 2°52.51 11 14.6 11 16.8
2010-04-22 07:05:17 51°20.888 2°52.517 11.4 14.5 12 16.5
2010-04-22 07:05:22 51°20.907 2°52.523 11.5 14.6 12 17.3
2010-04-22 07:05:27 51°20.927 2°52.53 11.3 14.6 11 17.4
2010-04-22 07:05:32 51°20.947 2°52.536 11.1 14.5 12 16.9
2010-04-22 07:05:37 51°20.966 2°52.543 11.2 14.5 11 17.2
2010-04-22 07:05:42 51°20.986 2°52.549 11.1 14.5 12 17.2
2010-04-22 07:05:47 51°21.006 2°52.556 11.2 14.4 12 16.9
2010-04-22 07:05:52 51°21.025 2°52.563 11.6 14.4 13 17.6
2010-04-22 07:05:57 51°21.044 2°52.569 11.9 14.4 12 18.1
2010-04-22 07:06:02 51°21.064 2°52.576 11.7 14.5 12 18
2010-04-22 07:06:07 51°21.084 2°52.582 11.1 14.3 11 17.5
2010-04-22 07:06:12 51°21.103 2°52.588 11 14.3 12 17.4
2010-04-22 07:06:17 51°21.122 2°52.594 11.1 14.3 11 17.2
2010-04-22 07:06:22 51°21.142 2°52.6 10.8 14.4 11 17.6
2010-04-22 07:06:27 51°21.162 2°52.607 10.8 14.4 12 17.4
2010-04-22 07:06:32 51°21.181 2°52.613 11 14.4 11 17.4
2010-04-22 07:06:37 51°21.201 2°52.62 11 14.5 11 17.8
2010-04-22 07:06:42 51°21.221 2°52.626 10.9 14.5 11 17.8
2010-04-22 07:06:47 51°21.24 2°52.632 10.6 14.4 12 18.4
2010-04-22 07:06:52 51°21.26 2°52.638 10.5 14.5 11 18.7
2010-04-22 07:06:57 51°21.28 2°52.645 10.3 14.5 12 18.5
2010-04-22 07:07:02 51°21.3 2°52.651 10.5 14.5 11 18.3
2010-04-22 07:07:07 51°21.319 2°52.658 11 14.5 12 18.6
2010-04-22 07:07:12 51°21.339 2°52.664 10.5 14.5 11 18.7
2010-04-22 07:07:17 51°21.359 2°52.671 11 14.6 12 19.3
2010-04-22 07:07:22 51°21.379 2°52.677 10.9 14.5 11 19.1
2010-04-22 07:07:27 51°21.399 2°52.684 11.1 14.6 12 18.7
2010-04-22 07:07:32 51°21.419 2°52.69 10.6 14.7 11 19.1
2010-04-22 07:07:37 51°21.438 2°52.696 10.7 14.6 11 19.3
2010-04-22 07:07:42 51°21.458 2°52.703 10.6 14.6 12 19.6
2010-04-22 07:07:47 51°21.478 2°52.709 10.7 14.7 12 19.8
2010-04-22 07:07:52 51°21.498 2°52.716 11 14.7 11 19.8
2010-04-22 07:07:57 51°21.518 2°52.722 10.5 14.5 11 19.7
2010-04-22 07:08:02 51°21.538 2°52.728 10.3 14.4 11 19.2
2010-04-22 07:08:07 51°21.558 2°52.734 10.3 14.5 11 20.3
2010-04-22 07:08:12 51°21.577 2°52.74 10.2 14.3 11 20.5
2010-04-22 07:08:17 51°21.597 2°52.747 10.2 14.4 11 21.5
2010-04-22 07:08:22 51°21.616 2°52.753 10.4 14.3 12 21.9
2010-04-22 07:08:27 51°21.635 2°52.76 10.6 14.1 12 21.3
2010-04-22 07:08:32 51°21.654 2°52.766 10.5 14.3 11 21.6
2010-04-22 07:08:37 51°21.674 2°52.772 10.3 14.3 10 21.5
2010-04-22 07:08:42 51°21.693 2°52.778 10.2 14.4 10 21.8
2010-04-22 07:08:47 51°21.713 2°52.782 8.8 14.4 9 21.9
2010-04-22 07:08:52 51°21.733 2°52.787 7.8 14.2 8 21.2
2010-04-22 07:08:57 51°21.752 2°52.792 7 14.2 8 21.3
2010-04-22 07:09:02 51°21.772 2°52.796 6.5 14.3 7 21.9
2010-04-22 07:09:07 51°21.792 2°52.799 5.8 14.3 7 22.4
2010-04-22 07:09:12 51°21.812 2°52.803 5.7 14.3 6 22.5
2010-04-22 07:09:17 51°21.832 2°52.807 5.2 14.4 6 23.1
2010-04-22 07:09:22 51°21.852 2°52.81 4.7 14.5 5 23.5
2010-04-22 07:09:27 51°21.872 2°52.813 4.7 14.3 6 23.4
2010-04-22 07:09:32 51°21.891 2°52.815 4.2 14.3 3 23.3
2010-04-22 07:09:37 51°21.911 2°52.816 2.8 14.3 3 23.8
2010-04-22 07:09:42 51°21.931 2°52.817 1.9 14.3 1 23.7
2010-04-22 07:09:47 51°21.951 2°52.819 1.3 14.4 2 24.6
2010-04-22 07:09:52 51°21.972 2°52.82 0.8 14.4 1 24.6
2010-04-22 07:09:57 51°21.991 2°52.819 0.3 14.3 1 24.4
2010-04-22 07:10:02 51°22.011 2°52.819 358.7 14.3 358 24.9
2010-04-22 07:10:07 51°22.031 2°52.817 357.2 14.3 358 24.9
2010-04-22 07:10:12 51°22.051 2°52.815 356.1 14.4 356 25.4
2010-04-22 07:10:17 51°22.071 2°52.813 355.4 14 356 24.7
2010-04-22 07:10:22 51°22.091 2°52.811 354.4 14 355 25.1
2010-04-22 07:10:27 51°22.111 2°52.808 353.4 14.2 354 25.5
2010-04-22 07:10:32 51°22.131 2°52.805 352.5 14.3 354 26.1
2010-04-22 07:10:37 51°22.15 2°52.802 352.7 14.3 354 25.6
2010-04-22 07:10:42 51°22.17 2°52.798 352.1 14.4 354 26.1
2010-04-22 07:10:47 51°22.189 2°52.794 351.8 14.4 353 26.4
2010-04-22 07:10:52 51°22.209 2°52.79 351.8 14.4 353 26.6
2010-04-22 07:10:57 51°22.229 2°52.786 351.5 14.4 353 26.1
2010-04-22 07:11:02 51°22.249 2°52.783 351.4 14.5 353 26.7
2010-04-22 07:11:07 51°22.269 2°52.779 351.5 14.4 353 26.7
2010-04-22 07:11:12 51°22.288 2°52.775 351.4 14.2 353 27
2010-04-22 07:11:17 51°22.308 2°52.771 352.1 14.2 354 25.8
2010-04-22 07:11:22 51°22.328 2°52.768 351.9 14.2 353 25.5
2010-04-22 07:11:27 51°22.348 2°52.765 351.9 14.1 354 25.1
2010-04-22 07:11:32 51°22.367 2°52.762 352.1 14 354 24.5
2010-04-22 07:11:37 51°22.387 2°52.758 352.1 14.2 354 25.5
2010-04-22 07:11:42 51°22.407 2°52.755 352.3 14.3 354 25.1
2010-04-22 07:11:47 51°22.427 2°52.752 352.5 14.2 354 24.7
2010-04-22 07:11:52 51°22.446 2°52.749 352.4 14.1 355 24.4
2010-04-22 07:11:57 51°22.466 2°52.746 352.7 14.3 355 25.3
2010-04-22 07:12:02 51°22.485 2°52.743 352.4 14.3 355 25.2
2010-04-22 07:12:07 51°22.505 2°52.74 352.6 14.4 355 25.4
2010-04-22 07:12:12 51°22.525 2°52.736 352.9 14.4 355 24.5
2010-04-22 07:12:17 51°22.544 2°52.733 352.8 14.3 354 24.9
2010-04-22 07:12:22 51°22.564 2°52.73 352.7 14.4 354 24.8
2010-04-22 07:12:27 51°22.584 2°52.727 352.3 14.4 355 24.2
2010-04-22 07:12:32 51°22.604 2°52.724 352.6 14.5 355 24.8
2010-04-22 07:12:37 51°22.624 2°52.72 352.9 14.5 354 24.3
2010-04-22 07:12:42 51°22.643 2°52.716 352.8 14.4 353 24.2
2010-04-22 07:12:47 51°22.663 2°52.713 352.3 14.5 354 24.4
2010-04-22 07:12:52 51°22.683 2°52.709 352.4 14.6 354 24.3
2010-04-22 07:12:57 51°22.703 2°52.706 352.8 14.5 355 24.7
2010-04-22 07:13:02 51°22.724 2°52.704 353.2 14.4 355 24.6
2010-04-22 07:13:07 51°22.744 2°52.701 353.1 14.4 354 25.2
2010-04-22 07:13:12 51°22.764 2°52.698 352.9 14.5 355 25.3
2010-04-22 07:13:17 51°22.785 2°52.696 352.8 14.6 355 25
2010-04-22 07:13:22 51°22.805 2°52.693 352.8 14.5 355 25.4
2010-04-22 07:13:27 51°22.825 2°52.69 352.9 14.4 354 24.6
2010-04-22 07:13:32 51°22.844 2°52.687 352.3 14.5 355 25
2010-04-22 07:13:37 51°22.864 2°52.683 352.6 14.5 354 25.1
2010-04-22 07:13:42 51°22.884 2°52.68 352.7 14.6 356 24.5
2010-04-22 07:13:47 51°22.904 2°52.677 353 14.6 354 24.2
2010-04-22 07:13:52 51°22.924 2°52.675 352.8 14.5 355 24.4
2010-04-22 07:13:57 51°22.945 2°52.671 353 14.6 353 25.4
2010-04-22 07:14:02 51°22.965 2°52.668 352.7 14.5 355 24.2
2010-04-22 07:14:07 51°22.984 2°52.665 352.8 14.6 355 23.1
2010-04-22 07:14:12 51°23.004 2°52.662 353.1 14.5 355 23.9
2010-04-22 07:14:17 51°23.024 2°52.66 353 14.4 356 24.7
2010-04-22 07:14:22 51°23.044 2°52.657 352.8 14.5 354 24.9
2010-04-22 07:14:27 51°23.064 2°52.655 353.4 14.6 356 25.3
2010-04-22 07:14:32 51°23.085 2°52.652 353.3 14.6 355 24.5
2010-04-22 07:14:37 51°23.105 2°52.65 352.9 14.6 355 24.6
2010-04-22 07:14:42 51°23.125 2°52.648 353.3 14.7 355 24.5
2010-04-22 07:14:47 51°23.145 2°52.644 352.9 14.7 355 23.7
2010-04-22 07:14:52 51°23.165 2°52.641 352.6 14.7 354 23.5
2010-04-22 07:14:57 51°23.186 2°52.639 353 14.7 355 22.9
2010-04-22 07:15:02 51°23.206 2°52.636 352.9 14.6 355 22.6
2010-04-22 07:15:07 51°23.226 2°52.632 352.9 14.7 355 23.1
2010-04-22 07:15:12 51°23.247 2°52.63 352.7 14.6 355 22.1
2010-04-22 07:15:17 51°23.266 2°52.627 352.3 14.5 356 21
2010-04-22 07:15:22 51°23.286 2°52.624 352.8 14.6 353 22.9
2010-04-22 07:15:27 51°23.306 2°52.622 352.9 14.6 358 22.2
2010-04-22 07:15:32 51°23.326 2°52.617 352.4 14.5 351 22.3
2010-04-22 07:15:37 51°23.346 2°52.616 353.3 14.7 1 22.3
2010-04-22 07:15:42 51°23.366 2°52.611 352.6 14.6 349 22.6
2010-04-22 07:15:47 51°23.387 2°52.61 352.6 14.8 358 22.9
2010-04-22 07:15:52 51°23.407 2°52.606 353 14.7 353 21.8
2010-04-22 07:15:57 51°23.428 2°52.604 353.4 14.9 357 22.9
2010-04-22 07:16:02 51°23.448 2°52.601 353 14.8 355 22.6
2010-04-22 07:16:07 51°23.469 2°52.599 353.8 14.9 356 22.5
2010-04-22 07:16:12 51°23.489 2°52.596 353.1 14.9 355 22.5
2010-04-22 07:16:17 51°23.51 2°52.594 353 14.9 356 22.5
2010-04-22 07:16:22 51°23.53 2°52.591 353.3 14.9 355 22.9
2010-04-22 07:16:27 51°23.551 2°52.588 353.4 14.9 355 22.3
2010-04-22 07:16:32 51°23.571 2°52.586 353.3 14.8 355 20.9
2010-04-22 07:16:37 51°23.591 2°52.582 352.9 14.7 356 21.4
2010-04-22 07:16:42 51°23.611 2°52.58 353 14.6 355 20.7
2010-04-22 07:16:47 51°23.632 2°52.576 352.4 14.7 354 21.1
2010-04-22 07:16:52 51°23.653 2°52.575 353.4 14.8 356 20.8
2010-04-22 07:16:57 51°23.673 2°52.572 353 14.7 354 19.7
2010-04-22 07:17:02 51°23.693 2°52.57 352.9 14.8 356 20.1
2010-04-22 07:17:07 51°23.714 2°52.566 353.2 14.9 354 19.5
2010-04-22 07:17:12 51°23.735 2°52.564 353 14.8 356 17.4
2010-04-22 07:17:17 51°23.755 2°52.561 352.9 14.4 354 19
2010-04-22 07:17:22 51°23.775 2°52.559 352.7 14.5 356 19.1
2010-04-22 07:17:27 51°23.794 2°52.556 353 14.5 355 19.9
2010-04-22 07:17:32 51°23.814 2°52.553 353.3 14.7 356 19.7
2010-04-22 07:17:37 51°23.834 2°52.551 353.6 14.5 355 19
2010-04-22 07:17:42 51°23.854 2°52.548 353.6 14.5 356 17.4
2010-04-22 07:17:47 51°23.874 2°52.546 353.7 14.6 356 18.6
2010-04-22 07:17:52 51°23.895 2°52.543 353.8 14.7 355 18.2
2010-04-22 07:17:57 51°23.915 2°52.541 353.5 14.6 355 18.8
2010-04-22 07:18:02 51°23.935 2°52.538 353.6 14.7 356 18.9
2010-04-22 07:18:07 51°23.956 2°52.536 354 15 356 19.3
2010-04-22 07:18:12 51°23.977 2°52.533 353.4 14.8 354 18.8
2010-04-22 07:18:17 51°23.997 2°52.531 353 14.8 356 18
2010-04-22 07:18:22 51°24.017 2°52.528 353.5 14.5 355 19
2010-04-22 07:18:27 51°24.037 2°52.526 353.5 14.6 357 18.8
2010-04-22 07:18:32 51°24.057 2°52.523 353.9 14.5 356 19.5
2010-04-22 07:18:37 51°24.078 2°52.52 352.9 14.7 355 20.8
2010-04-22 07:18:42 51°24.098 2°52.518 352.8 14.5 356 21
2010-04-22 07:18:47 51°24.118 2°52.515 353.5 14.5 355 20.6
2010-04-22 07:18:52 51°24.138 2°52.513 353.5 14.6 356 21.3
2010-04-22 07:18:57 51°24.158 2°52.511 353.8 14.7 356 20.9
2010-04-22 07:19:02 51°24.178 2°52.508 353.8 14.6 355 19.8
2010-04-22 07:19:07 51°24.198 2°52.506 353.6 14.6 356 18.6
2010-04-22 07:19:12 51°24.219 2°52.503 353 14.7 355 19.4
2010-04-22 07:19:17 51°24.239 2°52.501 353.3 14.6 356 19.9
2010-04-22 07:19:22 51°24.26 2°52.498 353.3 14.5 355 20.5
2010-04-22 07:19:27 51°24.28 2°52.495 353.1 14.6 355 21.7
2010-04-22 07:19:32 51°24.3 2°52.492 353.1 14.7 354 21.5
2010-04-22 07:19:37 51°24.32 2°52.489 352.9 15 356 21.8
2010-04-22 07:19:42 51°24.341 2°52.487 353.1 14.8 355 20.6
2010-04-22 07:19:47 51°24.361 2°52.484 352.9 14.7 355 18.9
2010-04-22 07:19:52 51°24.381 2°52.482 353.3 14.5 355 17.9
2010-04-22 07:19:57 51°24.401 2°52.479 353.6 14.6 356 19.2
2010-04-22 07:20:02 51°24.421 2°52.476 353.4 14.6 354 20.1
2010-04-22 07:20:07 51°24.442 2°52.473 352.8 14.6 356 19.7
2010-04-22 07:20:12 51°24.462 2°52.47 353.1 14.6 354 20.7
2010-04-22 07:20:17 51°24.482 2°52.468 353 14.6 356 21.3
2010-04-22 07:20:22 51°24.502 2°52.465 353.1 14.5 355 20.4
2010-04-22 07:20:27 51°24.522 2°52.462 353.3 14.5 356 20.4
2010-04-22 07:20:32 51°24.543 2°52.46 353.2 14.4 355 21
2010-04-22 07:20:37 51°24.563 2°52.458 353 14.5 356 21
2010-04-22 07:20:42 51°24.583 2°52.456 353.5 14.6 356 20.8
2010-04-22 07:20:47 51°24.603 2°52.453 353.2 14.7 354 21.9
2010-04-22 07:20:52 51°24.623 2°52.45 353.4 14.6 356 21.9
2010-04-22 07:20:57 51°24.643 2°52.448 353.3 14.5 355 23.1
2010-04-22 07:21:02 51°24.663 2°52.445 353.1 14.4 355 22
2010-04-22 07:21:07 51°24.683 2°52.443 352.8 14.4 356 22.3
2010-04-22 07:21:12 51°24.703 2°52.441 353.4 14.7 356 23.2
2010-04-22 07:21:17 51°24.723 2°52.438 353.6 14.6 356 22.7
2010-04-22 07:21:22 51°24.743 2°52.436 353.6 14.5 355 23.6
2010-04-22 07:21:27 51°24.763 2°52.434 353.3 14.4 356 24.3
2010-04-22 07:21:32 51°24.783 2°52.431 353.5 14.5 355 24.3
2010-04-22 07:21:37 51°24.804 2°52.43 353.5 14.6 357 24.5
2010-04-22 07:21:42 51°24.824 2°52.427 353.7 14.5 356 25
2010-04-22 07:21:47 51°24.844 2°52.425 353.5 14.4 356 24.3
2010-04-22 07:21:52 51°24.864 2°52.423 353.6 14.7 357 25.2
2010-04-22 07:21:57 51°24.884 2°52.419 353.3 14.4 355 25.2
2010-04-22 07:22:02 51°24.904 2°52.418 353.1 14.5 356 25.7
2010-04-22 07:22:07 51°24.924 2°52.415 353.2 14.6 355 25.8
2010-04-22 07:22:12 51°24.944 2°52.412 353.1 14.6 355 26.2
2010-04-22 07:22:17 51°24.964 2°52.409 353.4 14.4 355 25.7
2010-04-22 07:22:22 51°24.984 2°52.407 352.9 14.4 356 26
2010-04-22 07:22:27 51°25.004 2°52.405 353.4 14.4 356 26.6
2010-04-22 07:22:32 51°25.024 2°52.403 353.6 14.6 356 26.8
2010-04-22 07:22:37 51°25.044 2°52.4 353.4 14.5 356 26.2
2010-04-22 07:22:42 51°25.065 2°52.398 353.2 14.5 356 26
2010-04-22 07:22:47 51°25.085 2°52.395 353 14.5 356 26.7
2010-04-22 07:22:52 51°25.105 2°52.393 353.3 14.5 356 27.8
2010-04-22 07:22:57 51°25.125 2°52.391 353.1 14.7 356 27.7
2010-04-22 07:23:02 51°25.145 2°52.388 353 14.6 356 27.5
2010-04-22 07:23:07 51°25.165 2°52.386 353.3 14.4 356 27.6
2010-04-22 07:23:12 51°25.185 2°52.383 353.4 14.5 356 27.2
2010-04-22 07:23:17 51°25.205 2°52.381 353.3 14.8 356 26.6
2010-04-22 07:23:22 51°25.225 2°52.378 353.1 14.8 355 27.2
2010-04-22 07:23:27 51°25.245 2°52.376 353.6 14.4 357 26.6
2010-04-22 07:23:32 51°25.265 2°52.373 353.6 14.3 355 26.6
2010-04-22 07:23:37 51°25.286 2°52.371 353.2 14.8 356 26.9
2010-04-22 07:23:42 51°25.306 2°52.368 353.4 14.7 355 26.4
2010-04-22 07:23:47 51°25.326 2°52.365 353.1 14.7 354 26.8
2010-04-22 07:23:52 51°25.347 2°52.362 353.1 14.7 355 27
2010-04-22 07:23:57 51°25.367 2°52.359 353.1 14.8 352 26.6
2010-04-22 07:24:02 51°25.387 2°52.356 352.5 14.9 356 26.7
2010-04-22 07:24:07 51°25.408 2°52.353 353.4 14.7 354 26.1
2010-04-22 07:24:12 51°25.428 2°52.349 353.3 14.7 355 25.9
2010-04-22 07:24:17 51°25.449 2°52.346 353.3 14.8 354 26.1
2010-04-22 07:24:22 51°25.469 2°52.343 353.1 14.8 354 26
2010-04-22 07:24:27 51°25.489 2°52.34 353 14.7 354 26.4
2010-04-22 07:24:31 51°25.505 2°52.337 353.1 14.8 354 27.1
2010-04-22 07:24:37 51°25.53 2°52.333 353 14.7 354 26.9
2010-04-22 07:24:42 51°25.55 2°52.33 352.9 14.6 354 26.4
2010-04-22 07:24:47 51°25.57 2°52.327 353 14.7 355 26.9
2010-04-22 07:24:52 51°25.59 2°52.323 353.3 14.7 354 26.9
2010-04-22 07:24:57 51°25.61 2°52.32 353 14.7 354 26.8
2010-04-22 07:25:02 51°25.63 2°52.317 353.1 14.6 354 27.1
2010-04-22 07:25:07 51°25.65 2°52.312 352.8 14.6 353 26.9
2010-04-22 07:25:12 51°25.671 2°52.309 353 14.7 354 27.7
2010-04-22 07:25:17 51°25.691 2°52.305 352.8 14.6 353 27.1
2010-04-22 07:25:22 51°25.711 2°52.302 353.1 14.7 354 28.4
2010-04-22 07:25:27 51°25.731 2°52.298 353.5 14.5 353 29.1
2010-04-22 07:25:32 51°25.75 2°52.295 353.2 14.4 354 27.9
2010-04-22 07:25:37 51°25.77 2°52.292 353.5 14.1 354 27.1
2010-04-22 07:25:42 51°25.79 2°52.289 353.6 14.3 355 27.7
2010-04-22 07:25:47 51°25.809 2°52.286 353.4 14.4 354 28.2
2010-04-22 07:25:52 51°25.83 2°52.282 353.5 14.5 355 28.9
2010-04-22 07:25:57 51°25.849 2°52.279 353.7 14.4 355 28.4
2010-04-22 07:26:02 51°25.869 2°52.276 353.7 14.6 355 28.6
2010-04-22 07:26:07 51°25.89 2°52.274 353.9 14.5 355 28.1
2010-04-22 07:26:12 51°25.91 2°52.271 354.2 14.4 355 27.9
2010-04-22 07:26:17 51°25.93 2°52.268 354 14.3 355 28.7
2010-04-22 07:26:22 51°25.949 2°52.266 354.1 14.4 354 28.7
2010-04-22 07:26:27 51°25.969 2°52.263 353.8 14.4 356 29.4
2010-04-22 07:26:32 51°25.989 2°52.26 353.1 14.4 354 29
2010-04-22 07:26:37 51°26.009 2°52.258 354.1 14.5 358 29
2010-04-22 07:26:42 51°26.029 2°52.256 355.2 14.7 356 29
2010-04-22 07:26:47 51°26.049 2°52.256 356.7 14.7 -999 29.4
2010-04-22 07:26:52 51°26.07 2°52.254 357.6 14.6 357 29.4
2010-04-22 07:26:57 51°26.09 2°52.254 357.9 14.6 1 28.8
2010-04-22 07:27:02 51°26.111 2°52.254 358.7 14.6 -999 28.4
2010-04-22 07:27:07 51°26.131 2°52.254 359.4 14.6 -999 29
2010-04-22 07:27:12 51°26.151 2°52.255 359.8 14.8 -999 29.5
2010-04-22 07:27:17 51°26.171 2°52.255 359.8 14.6 -999 28.8
2010-04-22 07:27:22 51°26.192 2°52.255 359.7 14.6 1 28.6
2010-04-22 07:27:27 51°26.212 2°52.255 359.9 14.6 1 28.3
2010-04-22 07:27:32 51°26.232 2°52.256 359.9 14.8 -999 28.7
2010-04-22 07:27:37 51°26.253 2°52.256 -999 14.8 -999 28.7
2010-04-22 07:27:42 51°26.274 2°52.256 -999 14.8 -999 29.4
2010-04-22 07:27:47 51°26.294 2°52.256 -999 14.7 -999 29.1
2010-04-22 07:27:52 51°26.314 2°52.256 359.7 14.6 -999 28.3
2010-04-22 07:27:57 51°26.335 2°52.256 359.6 14.8 -999 28.7
2010-04-22 07:28:02 51°26.355 2°52.256 359.9 14.8 1 29.2
2010-04-22 07:28:07 51°26.376 2°52.256 0.2 14.6 359 29.7
2010-04-22 07:28:12 51°26.396 2°52.257 0.1 14.7 1 29.5
2010-04-22 07:28:17 51°26.417 2°52.256 359.8 14.9 -999 29.2
2010-04-22 07:28:22 51°26.437 2°52.256 359.7 14.9 1 29.6
2010-04-22 07:28:27 51°26.458 2°52.257 0.1 14.7 -999 28.4
2010-04-22 07:28:32 51°26.478 2°52.257 -999 14.6 1 27.8
2010-04-22 07:28:37 51°26.498 2°52.257 359.9 14.8 1 28.2
2010-04-22 07:28:42 51°26.519 2°52.258 0.1 14.6 1 27.9
2010-04-22 07:28:47 51°26.539 2°52.258 0.1 14.5 -999 27.9
2010-04-22 07:28:52 51°26.559 2°52.258 359.4 14.6 -999 29
2010-04-22 07:28:57 51°26.579 2°52.258 359.6 14.6 1 27.8
2010-04-22 07:29:02 51°26.6 2°52.258 359.8 14.7 -999 28.5
2010-04-22 07:29:07 51°26.62 2°52.259 359.7 14.7 1 29.1
2010-04-22 07:29:12 51°26.64 2°52.258 359.9 14.6 -999 28.4
2010-04-22 07:29:17 51°26.66 2°52.259 359.9 14.6 -999 28.6
2010-04-22 07:29:22 51°26.68 2°52.259 359.7 14.7 -999 28.9
2010-04-22 07:29:27 51°26.701 2°52.259 0.3 14.7 -999 29.3
2010-04-22 07:29:32 51°26.721 2°52.259 -999 14.6 -999 29.2
2010-04-22 07:29:37 51°26.741 2°52.259 359.4 14.6 -999 29
2010-04-22 07:29:42 51°26.762 2°52.259 359.4 14.8 -999 29.2
2010-04-22 07:29:47 51°26.782 2°52.259 359.6 14.6 -999 29.6
2010-04-22 07:29:52 51°26.802 2°52.258 359.4 14.5 -999 28.7
2010-04-22 07:29:57 51°26.822 2°52.259 359.4 14.6 -999 28.2
2010-04-22 07:30:02 51°26.843 2°52.259 359.4 14.7 1 28.3
2010-04-22 07:30:07 51°26.863 2°52.259 359.8 14.7 -999 27.6
2010-04-22 07:30:12 51°26.883 2°52.259 359.7 14.5 -999 28
2010-04-22 07:30:17 51°26.904 2°52.26 -999 14.7 -999 27.3
2010-04-22 07:30:22 51°26.924 2°52.26 359.8 14.7 1 28.8
2010-04-22 07:30:27 51°26.944 2°52.26 359.7 14.8 359 28.2
2010-04-22 07:30:32 51°26.965 2°52.261 359.4 14.7 2 27
2010-04-22 07:30:37 51°26.984 2°52.261 359.8 14.3 359 25
2010-04-22 07:30:42 51°27.004 2°52.261 359.1 14.5 1 27.3
2010-04-22 07:30:47 51°27.024 2°52.261 359.7 14.5 -999 26.3
2010-04-22 07:30:52 51°27.045 2°52.261 359.8 14.3 -999 24.6
2010-04-22 07:30:57 51°27.065 2°52.261 359.7 14.4 -999 22
2010-04-22 07:31:02 51°27.085 2°52.261 359.1 14.5 1 22.9
2010-04-22 07:31:07 51°27.105 2°52.262 359.5 14.6 1 22.1
2010-04-22 07:31:12 51°27.125 2°52.262 359.7 14.3 1 20.1
2010-04-22 07:31:17 51°27.145 2°52.262 359.6 14.4 -999 22.6
2010-04-22 07:31:22 51°27.165 2°52.263 359.6 14.6 2 23.3
2010-04-22 07:31:27 51°27.186 2°52.263 359.7 14.6 359 23.1
2010-04-22 07:31:32 51°27.206 2°52.263 359.5 14.5 2 22
2010-04-22 07:31:37 51°27.226 2°52.263 359.7 14.5 358 24
2010-04-22 07:31:42 51°27.246 2°52.264 359.4 14.4 2 23.5
2010-04-22 07:31:47 51°27.266 2°52.264 359.3 14.4 359 23
2010-04-22 07:31:52 51°27.286 2°52.264 359.3 14.5 1 22
2010-04-22 07:31:57 51°27.306 2°52.265 359.6 14.4 1 21
2010-04-22 07:32:02 51°27.326 2°52.265 359.3 14.6 1 23.1
2010-04-22 07:32:07 51°27.346 2°52.265 359.3 14.6 1 23.1
2010-04-22 07:32:12 51°27.366 2°52.266 359.5 14.5 1 23.6
2010-04-22 07:32:17 51°27.386 2°52.266 359.7 14.6 -999 24.2
2010-04-22 07:32:22 51°27.407 2°52.267 359.4 14.7 1 23.8
2010-04-22 07:32:27 51°27.427 2°52.266 359.2 14.6 1 24.1
2010-04-22 07:32:32 51°27.447 2°52.267 359.6 14.5 1 23.7
2010-04-22 07:32:37 51°27.467 2°52.267 359.4 14.6 1 23.7
2010-04-22 07:32:42 51°27.488 2°52.268 359.6 14.6 1 23.7
2010-04-22 07:32:47 51°27.508 2°52.268 359.6 14.7 -999 23.5
2010-04-22 07:32:52 51°27.528 2°52.269 359.4 14.7 1 21.6
2010-04-22 07:32:57 51°27.548 2°52.269 359.5 14.3 1 22
2010-04-22 07:33:02 51°27.568 2°52.27 359.9 14.4 2 22
2010-04-22 07:33:07 51°27.588 2°52.27 359.2 14.5 -999 22.3
2010-04-22 07:33:12 51°27.608 2°52.271 359.2 14.5 2 22
2010-04-22 07:33:17 51°27.628 2°52.271 359.6 14.4 359 20.3
2010-04-22 07:33:22 51°27.648 2°52.271 358.8 14.4 1 21
2010-04-22 07:33:27 51°27.668 2°52.272 359.4 14.3 1 21.8
2010-04-22 07:33:32 51°27.688 2°52.272 359.4 14.4 -999 23.1
2010-04-22 07:33:37 51°27.708 2°52.272 359.2 14.4 1 23
2010-04-22 07:33:42 51°27.728 2°52.272 359.2 14.4 359 23.2
2010-04-22 07:33:47 51°27.748 2°52.271 358.6 14.2 359 22.3
2010-04-22 07:33:52 51°27.768 2°52.27 358.6 14.2 359 20.7
2010-04-22 07:33:57 51°27.788 2°52.27 358.8 14.6 359 22
2010-04-22 07:34:02 51°27.808 2°52.269 358.6 14.4 359 22.6
2010-04-22 07:34:07 51°27.828 2°52.269 359.1 14.3 -999 23.3
2010-04-22 07:34:12 51°27.847 2°52.268 359.4 14.4 358 24.2
2010-04-22 07:34:17 51°27.868 2°52.268 359.3 14.5 -999 23.8
2010-04-22 07:34:22 51°27.888 2°52.268 359.4 14.5 359 24.1
2010-04-22 07:34:27 51°27.908 2°52.268 359.6 14.5 -999 24.1
2010-04-22 07:34:31 51°27.924 2°52.267 359.4 14.5 359 23.3
2010-04-22 07:34:37 51°27.948 2°52.266 359.3 14.6 359 23.4
2010-04-22 07:34:42 51°27.968 2°52.266 359.4 14.7 -999 23.2
2010-04-22 07:34:47 51°27.989 2°52.266 359.5 14.6 359 22.1
2010-04-22 07:34:52 51°28.009 2°52.266 359.3 14.6 -999 23.3
2010-04-22 07:34:57 51°28.029 2°52.265 359.7 14.6 359 24.1
2010-04-22 07:35:02 51°28.049 2°52.265 359.4 14.6 1 24.4
2010-04-22 07:35:07 51°28.069 2°52.265 359.4 14.4 359 24.5
2010-04-22 07:35:12 51°28.089 2°52.264 359.4 14.6 -999 25.9
2010-04-22 07:35:17 51°28.109 2°52.264 359.6 14.4 -999 25.8
2010-04-22 07:35:22 51°28.129 2°52.263 359.4 14.4 359 25.2
2010-04-22 07:35:27 51°28.149 2°52.263 359.4 14.4 -999 24.2
2010-04-22 07:35:32 51°28.169 2°52.263 359.6 14.4 358 24.5
2010-04-22 07:35:37 51°28.189 2°52.263 359.3 14.4 -999 24.8
2010-04-22 07:35:42 51°28.209 2°52.262 359.7 14.4 359 24.7
2010-04-22 07:35:47 51°28.229 2°52.261 359.3 14.5 358 25.4
2010-04-22 07:35:52 51°28.25 2°52.262 359.8 14.6 1 25.8
2010-04-22 07:35:58 51°28.274 2°52.261 359.6 14.5 359 25.8
2010-04-22 07:36:02 51°28.29 2°52.261 359 14.6 -999 26.8
2010-04-22 07:36:07 51°28.31 2°52.26 359.3 14.6 359 26.9
2010-04-22 07:36:12 51°28.33 2°52.26 359.2 14.6 359 26.8
2010-04-22 07:36:17 51°28.351 2°52.259 359.1 14.6 359 26.9
2010-04-22 07:36:22 51°28.371 2°52.259 359 14.6 359 27.5
2010-04-22 07:36:27 51°28.391 2°52.259 359 14.5 359 28
2010-04-22 07:36:32 51°28.412 2°52.258 359.2 14.6 359 28.1
2010-04-22 07:36:37 51°28.432 2°52.258 359.4 14.7 2 28.3
2010-04-22 07:36:42 51°28.452 2°52.258 359.8 14.5 358 28.7
2010-04-22 07:36:47 51°28.472 2°52.258 359.7 14.7 -999 28.4
2010-04-22 07:36:52 51°28.493 2°52.258 -999 14.7 -999 28.3
2010-04-22 07:36:57 51°28.512 2°52.257 359.4 14.4 -999 28.9
2010-04-22 07:37:02 51°28.532 2°52.258 359.4 14.5 1 29.4
2010-04-22 07:37:07 51°28.552 2°52.258 359.7 14.5 359 30.2
2010-04-22 07:37:12 51°28.573 2°52.258 359.6 14.5 1 29.8
2010-04-22 07:37:17 51°28.592 2°52.258 359.9 14.5 -999 30.1
2010-04-22 07:37:22 51°28.613 2°52.259 359.6 14.4 1 30
2010-04-22 07:37:27 51°28.633 2°52.258 359.8 14.5 359 29.9
2010-04-22 07:37:31 51°28.649 2°52.258 359.5 14.5 -999 30.2
2010-04-22 07:37:37 51°28.673 2°52.258 359.4 14.3 359 29.7
2010-04-22 07:37:42 51°28.693 2°52.258 359.1 14.4 -999 29.9
2010-04-22 07:37:47 51°28.713 2°52.257 359.1 14.4 359 31
2010-04-22 07:37:52 51°28.733 2°52.257 359.1 14.5 359 30.4
2010-04-22 07:37:57 51°28.753 2°52.257 358.9 14.3 1 30.7
2010-04-22 07:38:02 51°28.773 2°52.257 359.4 14.4 -999 30.6
2010-04-22 07:38:07 51°28.793 2°52.257 359.2 14.6 1 31
2010-04-22 07:38:12 51°28.813 2°52.258 359.7 14.6 -999 31.4
2010-04-22 07:38:17 51°28.833 2°52.257 359 14.4 1 30.7
2010-04-22 07:38:22 51°28.853 2°52.258 359.4 14.5 1 30.7
2010-04-22 07:38:27 51°28.873 2°52.258 359.6 14.6 -999 31.7
2010-04-22 07:38:32 51°28.893 2°52.259 359.4 14.6 1 31.8
2010-04-22 07:38:37 51°28.914 2°52.259 359.5 14.6 -999 31.5
2010-04-22 07:38:42 51°28.934 2°52.259 359.4 14.7 1 32
2010-04-22 07:38:47 51°28.954 2°52.26 359.3 14.6 -999 31.4
2010-04-22 07:38:52 51°28.974 2°52.26 359 14.5 -999 31.2
2010-04-22 07:38:57 51°28.995 2°52.26 359.2 14.5 1 31.3
2010-04-22 07:39:02 51°29.015 2°52.26 359.5 14.5 359 31.2
2010-04-22 07:39:07 51°29.035 2°52.26 359 14.7 1 32.3
2010-04-22 07:39:12 51°29.055 2°52.26 359.3 14.6 359 32.1
2010-04-22 07:39:17 51°29.075 2°52.26 359.2 14.5 -999 31.8
2010-04-22 07:39:22 51°29.095 2°52.26 359 14.5 -999 31.2
2010-04-22 07:39:27 51°29.115 2°52.26 359.1 14.7 -999 30.7
2010-04-22 07:39:32 51°29.136 2°52.26 359.4 14.5 -999 30.8
2010-04-22 07:39:37 51°29.156 2°52.26 359.2 14.5 -999 30.8
2010-04-22 07:39:42 51°29.176 2°52.26 359.4 14.8 -999 30.5
2010-04-22 07:39:47 51°29.197 2°52.26 359.4 14.7 -999 30.8
2010-04-22 07:39:52 51°29.217 2°52.26 359.2 14.6 -999 30.9
2010-04-22 07:39:57 51°29.238 2°52.26 359.4 14.6 1 30.7
2010-04-22 07:40:02 51°29.258 2°52.26 359.5 14.7 359 31
2010-04-22 07:40:07 51°29.279 2°52.261 359.7 14.8 1 31
2010-04-22 07:40:12 51°29.299 2°52.26 358.9 14.8 359 32
2010-04-22 07:40:17 51°29.319 2°52.261 359.6 14.8 1 32.3
2010-04-22 07:40:22 51°29.34 2°52.26 359.7 14.8 359 32.2
2010-04-22 07:40:27 51°29.36 2°52.26 359.2 14.7 -999 32.1
2010-04-22 07:40:31 51°29.377 2°52.26 359.1 14.8 -999 32.9
2010-04-22 07:40:37 51°29.401 2°52.26 359.4 14.3 1 31.7
2010-04-22 07:40:42 51°29.421 2°52.26 359.5 14.3 -999 31.3
2010-04-22 07:40:47 51°29.441 2°52.26 359.6 14.5 -999 31.9
2010-04-22 07:40:52 51°29.461 2°52.26 359.1 14.6 359 32
2010-04-22 07:40:57 51°29.482 2°52.26 358.9 14.7 -999 32.1
2010-04-22 07:41:02 51°29.502 2°52.259 359.2 14.8 -999 31.8
2010-04-22 07:41:07 51°29.523 2°52.258 358.7 14.8 358 32.3
2010-04-22 07:41:12 51°29.544 2°52.259 359.4 14.7 1 32
2010-04-22 07:41:17 51°29.564 2°52.258 359.3 14.8 357 32.9
2010-04-22 07:41:22 51°29.584 2°52.258 358.4 14.6 2 31.9
2010-04-22 07:41:27 51°29.604 2°52.258 359.2 14.5 359 32.4
2010-04-22 07:41:32 51°29.625 2°52.257 359 14.5 -999 32.2
2010-04-22 07:41:37 51°29.645 2°52.257 359.3 14.7 358 32
2010-04-22 07:41:42 51°29.666 2°52.257 358.6 14.7 -999 31.7
2010-04-22 07:41:47 51°29.686 2°52.257 358.8 14.8 359 31
2010-04-22 07:41:52 51°29.706 2°52.257 359.3 14.8 1 31.4
2010-04-22 07:41:57 51°29.727 2°52.256 359.4 14.9 358 31.4
2010-04-22 07:42:02 51°29.748 2°52.257 359.1 14.8 1 31.6
2010-04-22 07:42:07 51°29.768 2°52.256 359.3 14.8 359 30.9
2010-04-22 07:42:12 51°29.788 2°52.257 359.4 14.6 1 31.1
2010-04-22 07:42:17 51°29.809 2°52.255 359.1 14.6 358 31.3
2010-04-22 07:42:22 51°29.829 2°52.257 359.3 14.7 1 31.4
2010-04-22 07:42:27 51°29.85 2°52.256 359.4 14.7 359 31.4
2010-04-22 07:42:32 51°29.87 2°52.257 359.5 14.8 1 31.4
2010-04-22 07:42:37 51°29.891 2°52.256 359.4 14.8 359 31.6
2010-04-22 07:42:42 51°29.912 2°52.256 358.9 14.7 1 31.6
2010-04-22 07:42:47 51°29.932 2°52.256 359.2 14.7 359 30.9
2010-04-22 07:42:52 51°29.952 2°52.256 359.4 14.7 -999 31.1
2010-04-22 07:42:57 51°29.973 2°52.256 359.4 14.8 -999 32.1
2010-04-22 07:43:02 51°29.993 2°52.255 359.1 14.8 -999 30.9
2010-04-22 07:43:07 51°30.013 2°52.256 359.6 14.8 1 32.1
2010-04-22 07:43:12 51°30.034 2°52.255 359.4 14.8 359 32.9
2010-04-22 07:43:17 51°30.054 2°52.255 359 14.8 1 32.3
2010-04-22 07:43:22 51°30.075 2°52.255 359.4 14.8 359 33.1
2010-04-22 07:43:27 51°30.095 2°52.254 358.9 14.6 359 32
2010-04-22 07:43:31 51°30.111 2°52.255 359.1 14.4 1 32.2
2010-04-22 07:43:37 51°30.135 2°52.255 359.6 14.3 -999 31.9
2010-04-22 07:43:42 51°30.155 2°52.255 359.4 14.5 -999 31.1
2010-04-22 07:43:47 51°30.175 2°52.256 359.4 14.6 -999 31.3
2010-04-22 07:43:52 51°30.195 2°52.255 359.3 14.7 359 31.8
2010-04-22 07:43:57 51°30.216 2°52.255 359.6 14.7 359 31.9
2010-04-22 07:44:02 51°30.236 2°52.254 358.9 14.9 359 32.2
2010-04-22 07:44:07 51°30.257 2°52.255 359 14.8 -999 31.3
2010-04-22 07:44:12 51°30.277 2°52.254 358.6 14.9 359 30.4
2010-04-22 07:44:17 51°30.298 2°52.254 358.6 14.7 1 28.8
2010-04-22 07:44:22 51°30.318 2°52.254 359.8 14.7 358 27.3
2010-04-22 07:44:27 51°30.339 2°52.253 358.7 14.9 359 30.5
2010-04-22 07:44:32 51°30.36 2°52.253 359.4 14.8 -999 31.1
2010-04-22 07:44:37 51°30.381 2°52.252 359.3 14.9 359 30.5
2010-04-22 07:44:42 51°30.401 2°52.252 358.9 15 -999 30.6
2010-04-22 07:44:47 51°30.422 2°52.252 359.3 14.8 359 29.3
2010-04-22 07:44:52 51°30.442 2°52.252 359.5 14.8 1 27.6
2010-04-22 07:44:58 51°30.467 2°52.252 -999 14.9 359 25.3
2010-04-22 07:45:02 51°30.484 2°52.252 359.6 15 -999 27
2010-04-22 07:45:07 51°30.505 2°52.251 359.4 15 359 26.6
2010-04-22 07:45:12 51°30.525 2°52.252 359.3 14.9 -999 25.4
2010-04-22 07:45:17 51°30.546 2°52.251 359.1 14.9 359 23
2010-04-22 07:45:22 51°30.567 2°52.251 359.1 15 -999 19.7
2010-04-22 07:45:27 51°30.588 2°52.251 359.8 15.1 -999 22.1
2010-04-22 07:45:32 51°30.609 2°52.25 359.4 15 359 22.2
2010-04-22 07:45:37 51°30.629 2°52.25 359.4 14.8 358 21
2010-04-22 07:45:42 51°30.65 2°52.25 359 14.9 1 20.1
2010-04-22 07:45:47 51°30.67 2°52.249 359.9 14.7 359 21.1
2010-04-22 07:45:52 51°30.691 2°52.25 359.5 14.9 -999 20.1
2010-04-22 07:45:57 51°30.712 2°52.249 358.7 14.8 -999 21.3
2010-04-22 07:46:02 51°30.732 2°52.25 -999 14.6 -999 21.6
2010-04-22 07:46:07 51°30.752 2°52.249 359.3 14.5 359 22
2010-04-22 07:46:12 51°30.773 2°52.249 359.4 14.7 -999 22.2
2010-04-22 07:46:17 51°30.793 2°52.248 359.1 14.6 359 20.8
2010-04-22 07:46:22 51°30.813 2°52.249 359.4 14.6 1 20.5
2010-04-22 07:46:27 51°30.833 2°52.248 359.6 14.6 359 21.8
2010-04-22 07:46:32 51°30.854 2°52.248 359.4 14.6 -999 22.2
2010-04-22 07:46:37 51°30.874 2°52.249 359.8 14.6 359 21.9
2010-04-22 07:46:42 51°30.894 2°52.248 358.9 14.3 -999 21.8
2010-04-22 07:46:47 51°30.913 2°52.249 -999 13.5 1 20.8
2010-04-22 07:46:52 51°30.93 2°52.248 359.2 12.7 358 20
2010-04-22 07:46:57 51°30.947 2°52.249 358.6 11.7 1 20